Time;durP1;ratioP1;P1;durP2;ratioP2;P2;SDS_P1;SDS_P2;PMS_P1;PMS_P2;Temp;Humidity;BMP_temperature;BMP_pressure;BME280_temperature;BME280_humidity;BME280_pressure;Samples;Min_cycle;Max_cycle;Signal;HPM_P1;HPM_P2
2023/06/20 00:00:59;;;;;;;11.82;6.65;;;;;;;;;;10489703;28;20489;-60
2023/06/20 00:05:59;;;;;;;11.45;6.88;;;;;;;;;;10489432;28;20476;-59
2023/06/20 00:11:00;;;;;;;10.45;7.15;;;;;;;;;;10489251;28;20380;-59
2023/06/20 00:16:01;;;;;;;9.80;6.32;;;;;;;;;;10488864;28;20020;-59
2023/06/20 00:21:01;;;;;;;9.65;6.82;;;;;;;;;;10489212;28;20115;-59
2023/06/20 00:26:02;;;;;;;9.10;6.32;;;;;;;;;;10489572;28;20028;-59
2023/06/20 00:31:02;;;;;;;9.43;6.32;;;;;;;;;;10489174;28;20052;-59
2023/06/20 00:36:04;;;;;;;10.68;6.55;;;;;;;;;;10489406;28;20086;-59
2023/06/20 00:41:04;;;;;;;6.95;6.25;;;;;;;;;;10485251;28;20036;-59
2023/06/20 00:46:05;;;;;;;10.10;7.00;;;;;;;;;;10488685;28;20040;-59
2023/06/20 00:51:05;;;;;;;10.10;6.40;;;;;;;;;;10488934;28;20513;-59
2023/06/20 00:56:08;;;;;;;8.65;6.72;;;;;;;;;;10488966;28;20496;-62
2023/06/20 01:01:09;;;;;;;8.55;6.28;;;;;;;;;;10488520;28;20409;-59
2023/06/20 01:06:33;;;;;;;8.50;6.18;;;;;;;;;;10488422;28;20035;-59
2023/06/20 01:11:50;;;;;;;8.27;6.47;;;;;;;;;;10484990;28;20021;-59
2023/06/20 01:16:59;;;;;;;8.63;5.90;;;;;;;;;;10476905;28;20036;-59
2023/06/20 01:22:07;;;;;;;7.97;6.13;;;;;;;;;;10475056;28;20081;-59
2023/06/20 01:27:15;;;;;;;;;;;;;;;;;;10476817;28;20583;-59
2023/06/20 01:32:19;;;;;;;8.35;6.22;;;;;;;;;;10479352;28;19917;-59
2023/06/20 01:37:22;;;;;;;7.82;6.50;;;;;;;;;;10491002;28;20033;-59
2023/06/20 01:42:25;;;;;;;6.93;6.20;;;;;;;;;;10495115;28;20021;-58
2023/06/20 01:47:27;;;;;;;8.60;6.20;;;;;;;;;;10493146;28;20050;-59
2023/06/20 01:52:29;;;;;;;9.45;6.50;;;;;;;;;;10493996;28;20438;-62
2023/06/20 01:57:30;;;;;;;9.50;6.50;;;;;;;;;;10492719;28;20399;-59
2023/06/20 02:02:32;;;;;;;7.25;5.90;;;;;;;;;;10493087;28;20021;-59
2023/06/20 02:07:33;;;;;;;8.60;6.22;;;;;;;;;;10492078;28;20448;-59
2023/06/20 02:12:35;;;;;;;6.75;5.93;;;;;;;;;;10492325;28;20029;-59
2023/06/20 02:17:38;;;;;;;7.28;5.78;;;;;;;;;;10492182;28;20024;-59
2023/06/20 02:22:43;;;;;;;6.63;5.60;;;;;;;;;;10491821;28;20297;-59
2023/06/20 02:27:45;;;;;;;9.88;5.80;;;;;;;;;;10491447;28;20369;-59
2023/06/20 02:32:48;;;;;;;7.43;5.93;;;;;;;;;;10493165;28;20486;-59
2023/06/20 02:37:52;;;;;;;6.50;5.80;;;;;;;;;;10493637;28;20040;-59
2023/06/20 02:42:52;;;;;;;8.32;6.43;;;;;;;;;;10491088;28;20024;-58
2023/06/20 02:48:24;;;;;;;7.47;5.72;;;;;;;;;;10490608;28;20035;-59
2023/06/20 02:53:44;;;;;;;7.97;6.10;;;;;;;;;;10493005;28;20035;-59
2023/06/20 02:58:52;;;;;;;7.38;6.43;;;;;;;;;;10487441;28;20031;-59
2023/06/20 03:03:57;;;;;;;9.50;5.97;;;;;;;;;;10472811;28;20036;-59
2023/06/20 03:09:02;;;;;;;6.55;5.85;;;;;;;;;;10466439;28;20033;-59
2023/06/20 03:14:03;;;;;;;6.15;5.32;;;;;;;;;;10463867;28;20025;-60
2023/06/20 03:19:04;;;;;;;8.77;6.07;;;;;;;;;;10454046;28;20193;-60
2023/06/20 03:24:06;;;;;;;7.25;6.15;;;;;;;;;;10453573;28;20494;-59
2023/06/20 03:29:06;;;;;;;6.93;5.55;;;;;;;;;;10476258;28;20484;-59
2023/06/20 03:34:07;;;;;;;7.45;5.55;;;;;;;;;;10465569;28;20049;-59
2023/06/20 03:39:07;;;;;;;6.55;5.88;;;;;;;;;;10477871;28;20147;-59
2023/06/20 03:44:08;;;;;;;6.90;5.93;;;;;;;;;;10482785;28;20487;-58
2023/06/20 03:49:08;;;;;;;6.07;5.45;;;;;;;;;;10464226;28;20036;-59
2023/06/20 03:54:09;;;;;;;6.90;5.93;;;;;;;;;;10478077;28;20021;-59
2023/06/20 03:59:10;;;;;;;6.93;5.70;;;;;;;;;;10452317;28;20028;-59
2023/06/20 04:04:10;;;;;;;6.15;5.55;;;;;;;;;;10453711;28;20071;-61
2023/06/20 04:09:11;;;;;;;6.45;5.53;;;;;;;;;;10467134;28;20059;-59
2023/06/20 04:14:11;;;;;;;6.50;5.82;;;;;;;;;;10461917;28;20029;-59
2023/06/20 04:19:12;;;;;;;6.28;5.55;;;;;;;;;;10465078;28;20085;-59
2023/06/20 04:24:13;;;;;;;6.15;5.55;;;;;;;;;;10451456;28;20179;-59
2023/06/20 04:29:13;;;;;;;7.57;6.07;;;;;;;;;;10463636;28;20059;-59
2023/06/20 04:34:14;;;;;;;6.63;5.93;;;;;;;;;;10450647;28;20064;-59
2023/06/20 04:39:14;;;;;;;6.20;5.60;;;;;;;;;;10451652;28;20029;-58
2023/06/20 04:44:15;;;;;;;6.18;5.68;;;;;;;;;;10451095;28;20017;-59
2023/06/20 04:49:16;;;;;;;7.30;5.82;;;;;;;;;;10464924;28;20025;-59
2023/06/20 04:54:16;;;;;;;6.55;5.93;;;;;;;;;;10489219;28;20032;-59
2023/06/20 04:59:17;;;;;;;7.30;6.00;;;;;;;;;;10488757;28;20024;-62
2023/06/20 05:04:18;;;;;;;8.05;5.88;;;;;;;;;;10484689;28;20021;-62
2023/06/20 05:09:18;;;;;;;7.47;5.72;;;;;;;;;;10463083;28;20029;-62
2023/06/20 05:14:19;;;;;;;7.47;5.80;;;;;;;;;;10458804;28;20033;-62
2023/06/20 05:19:19;;;;;;;8.60;5.82;;;;;;;;;;10460930;28;20036;-61
2023/06/20 05:24:20;;;;;;;7.63;6.20;;;;;;;;;;10496444;28;20029;-60
2023/06/20 05:29:21;;;;;;;11.60;7.72;;;;;;;;;;10495570;28;20044;-63
2023/06/20 05:34:21;;;;;;;11.85;8.32;;;;;;;;;;10495678;28;20041;-62
2023/06/20 05:39:22;;;;;;;15.23;11.63;;;;;;;;;;10486714;28;20035;-62
2023/06/20 05:44:22;;;;;;;10.35;9.25;;;;;;;;;;10463765;28;20044;-62
2023/06/20 05:49:23;;;;;;;17.40;13.90;;;;;;;;;;10463887;28;20116;-62
2023/06/20 05:54:25;;;;;;;23.80;15.07;;;;;;;;;;10461989;28;20041;-62
2023/06/20 05:59:26;;;;;;;25.75;17.70;;;;;;;;;;10461158;28;20037;-62
2023/06/20 06:04:27;;;;;;;24.45;17.25;;;;;;;;;;10465020;28;20033;-61
2023/06/20 06:09:27;;;;;;;43.95;26.00;;;;;;;;;;10491911;28;20040;-60
2023/06/20 06:14:28;;;;;;;52.63;26.02;;;;;;;;;;10493069;28;20396;-60
2023/06/20 06:19:29;;;;;;;33.95;23.13;;;;;;;;;;10485082;28;20025;-60
2023/06/20 06:24:29;;;;;;;47.40;25.85;;;;;;;;;;10493925;28;20037;-60
2023/06/20 06:29:30;;;;;;;53.78;29.50;;;;;;;;;;10493620;28;20074;-58
2023/06/20 06:34:31;;;;;;;40.72;21.55;;;;;;;;;;10493902;28;20036;-58
2023/06/20 06:39:31;;;;;;;38.22;22.45;;;;;;;;;;10493539;28;20029;-58
2023/06/20 06:44:32;;;;;;;38.60;25.58;;;;;;;;;;10493429;28;20025;-58
2023/06/20 06:49:33;;;;;;;35.25;22.23;;;;;;;;;;10493258;28;20082;-58
2023/06/20 06:54:33;;;;;;;31.60;19.92;;;;;;;;;;10493241;28;20028;-58
2023/06/20 06:59:34;;;;;;;32.95;18.10;;;;;;;;;;10492541;28;20029;-59
2023/06/20 07:04:34;;;;;;;36.88;21.73;;;;;;;;;;10486254;28;20275;-59
2023/06/20 07:09:36;;;;;;;38.20;24.30;;;;;;;;;;10480712;28;20024;-58
2023/06/20 07:14:37;;;;;;;30.58;19.40;;;;;;;;;;10460113;28;20019;-59
2023/06/20 07:19:37;;;;;;;41.97;21.63;;;;;;;;;;10465656;28;20036;-58
2023/06/20 07:24:38;;;;;;;46.05;21.65;;;;;;;;;;10474459;28;20020;-58
2023/06/20 07:29:40;;;;;;;41.15;19.00;;;;;;;;;;10466523;28;20053;-59
2023/06/20 07:34:41;;;;;;;38.35;20.25;;;;;;;;;;10464545;28;20094;-58
2023/06/20 07:39:43;;;;;;;31.90;20.38;;;;;;;;;;10455798;28;20025;-58
2023/06/20 07:44:43;;;;;;;28.73;19.35;;;;;;;;;;10463333;28;20087;-59
2023/06/20 07:49:44;;;;;;;33.38;19.02;;;;;;;;;;10488252;28;20090;-59
2023/06/20 07:54:44;;;;;;;28.45;17.60;;;;;;;;;;10452849;28;20032;-59
2023/06/20 07:59:45;;;;;;;25.05;16.30;;;;;;;;;;10452260;28;20021;-59
2023/06/20 08:04:45;;;;;;;25.70;14.82;;;;;;;;;;10472557;28;20028;-59
2023/06/20 08:09:46;;;;;;;24.48;15.02;;;;;;;;;;10457077;28;20021;-59
2023/06/20 08:14:46;;;;;;;23.02;16.02;;;;;;;;;;10452463;28;20028;-59
2023/06/20 08:19:47;;;;;;;19.85;13.38;;;;;;;;;;10470764;28;20035;-59
2023/06/20 08:24:47;;;;;;;27.65;13.73;;;;;;;;;;10458825;28;20120;-59
2023/06/20 08:29:48;;;;;;;43.97;15.55;;;;;;;;;;10452143;28;20029;-58
2023/06/20 08:34:49;;;;;;;56.15;16.10;;;;;;;;;;10452176;28;20040;-58
2023/06/20 08:39:49;;;;;;;40.03;14.30;;;;;;;;;;10464357;28;20032;-59
2023/06/20 08:44:50;;;;;;;27.80;12.77;;;;;;;;;;10469364;28;20028;-59
2023/06/20 08:49:51;;;;;;;34.75;12.27;;;;;;;;;;10481714;28;20036;-58
2023/06/20 08:54:52;;;;;;;25.35;12.02;;;;;;;;;;10460857;28;20027;-58
2023/06/20 08:59:55;;;;;;;22.70;11.63;;;;;;;;;;10469552;28;20035;-58
2023/06/20 09:05:05;;;;;;;15.82;10.88;;;;;;;;;;10463232;28;20412;-58
2023/06/20 09:10:08;;;;;;;16.48;9.65;;;;;;;;;;10471460;28;20043;-58
2023/06/20 09:15:13;;;;;;;18.33;10.93;;;;;;;;;;10480998;28;20020;-58
2023/06/20 09:20:14;;;;;;;13.52;10.18;;;;;;;;;;10460567;28;20392;-60
2023/06/20 09:25:21;;;;;;;17.73;11.07;;;;;;;;;;10456767;28;20385;-59
2023/06/20 09:30:22;;;;;;;17.08;10.52;;;;;;;;;;10466067;28;20469;-60
2023/06/20 09:35:23;;;;;;;16.63;10.48;;;;;;;;;;10495763;28;20449;-59
2023/06/20 09:40:23;;;;;;;11.15;9.95;;;;;;;;;;10495232;28;20029;-59
2023/06/20 09:45:24;;;;;;;16.10;10.82;;;;;;;;;;10495814;28;20024;-59
2023/06/20 09:50:27;;;;;;;13.43;10.15;;;;;;;;;;10495646;28;20039;-60
2023/06/20 09:55:32;;;;;;;12.77;11.02;;;;;;;;;;10494338;28;20028;-60
2023/06/20 10:00:35;;;;;;;14.70;10.73;;;;;;;;;;10495036;28;20048;-60
2023/06/20 10:05:36;;;;;;;14.80;10.57;;;;;;;;;;10465042;28;20522;-60
2023/06/20 10:10:37;;;;;;;23.33;11.50;;;;;;;;;;10470029;28;20029;-59
2023/06/20 10:15:39;;;;;;;13.35;10.85;;;;;;;;;;10481664;28;20036;-59
2023/06/20 10:20:39;;;;;;;19.30;12.18;;;;;;;;;;10468751;28;20028;-59
2023/06/20 10:25:52;;;;;;;13.57;11.65;;;;;;;;;;10456094;28;20021;-59
2023/06/20 10:31:00;;;;;;;15.30;11.00;;;;;;;;;;10467861;28;20052;-59
2023/06/20 10:36:07;;;;;;;14.20;12.23;;;;;;;;;;10468790;28;20029;-59
2023/06/20 10:41:14;;;;;;;16.10;11.23;;;;;;;;;;10467890;28;20029;-60
2023/06/20 10:46:14;;;;;;;14.40;10.05;;;;;;;;;;10465359;28;20473;-60
2023/06/20 10:51:15;;;;;;;13.00;10.93;;;;;;;;;;10468229;28;20029;-58
2023/06/20 10:56:26;;;;;;;14.23;10.73;;;;;;;;;;10455323;28;20056;-58
2023/06/20 11:01:27;;;;;;;13.20;10.13;;;;;;;;;;10454447;28;20029;-58
2023/06/20 11:06:32;;;;;;;14.18;10.40;;;;;;;;;;10469656;28;20059;-59
2023/06/20 11:11:39;;;;;;;20.27;11.32;;;;;;;;;;10454783;28;20045;-58
2023/06/20 11:16:42;;;;;;;13.52;10.50;;;;;;;;;;10486843;28;20047;-58
2023/06/20 11:21:43;;;;;;;12.18;10.65;;;;;;;;;;10491251;28;20039;-58
2023/06/20 11:26:43;;;;;;;12.70;10.73;;;;;;;;;;10490774;28;20039;-58
2023/06/20 11:31:44;;;;;;;16.58;10.88;;;;;;;;;;10491263;28;20067;-59
2023/06/20 11:36:48;;;;;;;19.10;11.10;;;;;;;;;;10489590;28;20032;-59
2023/06/20 11:41:49;;;;;;;13.90;9.90;;;;;;;;;;10489556;28;20190;-59
2023/06/20 11:46:50;;;;;;;11.90;9.95;;;;;;;;;;10490071;28;20125;-59
2023/06/20 11:51:52;;;;;;;11.63;10.18;;;;;;;;;;10489216;28;20408;-59
2023/06/20 11:56:54;;;;;;;12.45;10.02;;;;;;;;;;10488576;28;20027;-58
2023/06/20 12:01:54;;;;;;;10.60;9.52;;;;;;;;;;10489790;28;20107;-60
2023/06/20 12:07:04;;;;;;;10.80;9.73;;;;;;;;;;10473877;28;20024;-58
2023/06/20 12:12:06;;;;;;;13.73;10.52;;;;;;;;;;10479750;28;20427;-59
2023/06/20 12:17:06;;;;;;;14.30;8.98;;;;;;;;;;10483060;28;20028;-58
2023/06/20 12:22:07;;;;;;;18.77;9.25;;;;;;;;;;10489352;28;20043;-58
2023/06/20 12:27:07;;;;;;;13.63;9.75;;;;;;;;;;10489366;28;20086;-58
2023/06/20 12:32:09;;;;;;;14.07;9.75;;;;;;;;;;10488995;28;20041;-58
2023/06/20 12:37:10;;;;;;;18.60;10.23;;;;;;;;;;10468619;28;20064;-58
2023/06/20 12:42:15;;;;;;;12.65;8.88;;;;;;;;;;10479595;28;20032;-58
2023/06/20 12:47:16;;;;;;;11.45;9.52;;;;;;;;;;10474986;28;20032;-58
2023/06/20 12:52:17;;;;;;;11.95;9.73;;;;;;;;;;10479624;28;20396;-58
2023/06/20 12:57:17;;;;;;;11.48;9.23;;;;;;;;;;10484630;28;20036;-58
2023/06/20 13:02:20;;;;;;;15.80;9.13;;;;;;;;;;10484413;28;20025;-57
2023/06/20 13:07:22;;;;;;;16.95;9.32;;;;;;;;;;10475826;28;20032;-58
2023/06/20 13:12:23;;;;;;;14.73;9.18;;;;;;;;;;10486171;28;20438;-58
2023/06/20 13:17:23;;;;;;;14.73;9.07;;;;;;;;;;10474261;28;20037;-58
2023/06/20 13:22:24;;;;;;;14.43;9.32;;;;;;;;;;10487283;28;20104;-58
2023/06/20 13:27:27;;;;;;;18.38;9.52;;;;;;;;;;10488897;28;20040;-58
2023/06/20 13:32:28;;;;;;;13.35;8.55;;;;;;;;;;10502236;22;20048;-60
2023/06/20 13:37:30;;;;;;;10.13;8.80;;;;;;;;;;10495143;28;20025;-60
2023/06/20 13:42:30;;;;;;;10.77;8.63;;;;;;;;;;10495666;28;20028;-60
2023/06/20 13:47:31;;;;;;;10.75;9.55;;;;;;;;;;10495035;28;20028;-60
2023/06/20 13:52:33;;;;;;;10.38;8.85;;;;;;;;;;10495457;28;20028;-60
2023/06/20 13:57:34;;;;;;;9.82;8.80;;;;;;;;;;10495341;28;20039;-60
2023/06/20 14:02:34;;;;;;;10.68;9.07;;;;;;;;;;10494266;28;20345;-60
2023/06/20 14:07:35;;;;;;;23.38;8.77;;;;;;;;;;10497280;28;20017;-59
2023/06/20 14:12:35;;;;;;;52.17;10.20;;;;;;;;;;10473201;28;20029;-59
2023/06/20 14:17:36;;;;;;;25.58;9.70;;;;;;;;;;10494394;28;20727;-59
2023/06/20 14:22:37;;;;;;;14.95;8.75;;;;;;;;;;10470363;28;20313;-59
2023/06/20 14:27:38;;;;;;;12.50;8.68;;;;;;;;;;10495291;28;20033;-59
2023/06/20 14:32:38;;;;;;;19.17;8.98;;;;;;;;;;10470903;28;20047;-59
2023/06/20 14:37:40;;;;;;;9.90;8.55;;;;;;;;;;10470486;28;20029;-59
2023/06/20 14:42:40;;;;;;;11.50;8.70;;;;;;;;;;10494972;28;20028;-59
2023/06/20 14:47:41;;;;;;;11.27;8.05;;;;;;;;;;10482344;28;20033;-59
2023/06/20 14:52:42;;;;;;;12.30;8.55;;;;;;;;;;10493475;28;20028;-59
2023/06/20 14:57:43;;;;;;;14.30;8.27;;;;;;;;;;10481862;28;20483;-60
2023/06/20 15:02:44;;;;;;;11.13;8.02;;;;;;;;;;10489001;28;20035;-59
2023/06/20 15:07:45;;;;;;;14.40;8.45;;;;;;;;;;10494838;28;20046;-59
2023/06/20 15:12:45;;;;;;;13.32;8.38;;;;;;;;;;10460588;28;20017;-59
2023/06/20 15:17:46;;;;;;;8.70;7.75;;;;;;;;;;10458940;28;20020;-60
2023/06/20 15:22:46;;;;;;;14.52;8.18;;;;;;;;;;10462933;28;20044;-59
2023/06/20 15:27:47;;;;;;;13.73;8.00;;;;;;;;;;10481739;28;20391;-59
2023/06/20 15:32:48;;;;;;;8.75;7.35;;;;;;;;;;10491074;28;20396;-59
2023/06/20 15:37:48;;;;;;;12.90;8.23;;;;;;;;;;10491593;28;20024;-59
2023/06/20 15:42:50;;;;;;;9.23;8.18;;;;;;;;;;10488930;28;20500;-59
2023/06/20 15:47:50;;;;;;;8.82;7.68;;;;;;;;;;10463920;28;20454;-60
2023/06/20 15:52:51;;;;;;;12.27;7.60;;;;;;;;;;10482234;28;20021;-60
2023/06/20 15:57:52;;;;;;;8.00;7.20;;;;;;;;;;10474226;28;20025;-60
2023/06/20 16:02:52;;;;;;;10.85;7.53;;;;;;;;;;10470285;28;20032;-60
2023/06/20 16:07:53;;;;;;;9.13;7.28;;;;;;;;;;10474932;28;20309;-60
2023/06/20 16:12:53;;;;;;;9.30;7.53;;;;;;;;;;10472409;28;20028;-62
2023/06/20 16:17:54;;;;;;;11.32;7.93;;;;;;;;;;10490659;28;20085;-60
2023/06/20 16:22:54;;;;;;;10.98;7.70;;;;;;;;;;10487760;28;20028;-60
2023/06/20 16:27:55;;;;;;;10.07;7.28;;;;;;;;;;10481593;28;20025;-60
2023/06/20 16:32:57;;;;;;;7.80;6.70;;;;;;;;;;10490987;28;20052;-59
2023/06/20 16:37:57;;;;;;;9.32;7.55;;;;;;;;;;10469235;28;20090;-61
2023/06/20 16:42:58;;;;;;;9.73;7.85;;;;;;;;;;10478968;28;20025;-59
2023/06/20 16:47:59;;;;;;;8.23;7.40;;;;;;;;;;10487145;28;20027;-60
2023/06/20 16:53:00;;;;;;;12.77;7.75;;;;;;;;;;10478342;28;20044;-60
2023/06/20 16:58:01;;;;;;;9.05;7.47;;;;;;;;;;10479155;28;20093;-61
2023/06/20 17:03:01;;;;;;;7.85;7.05;;;;;;;;;;10462160;28;20025;-59
2023/06/20 17:08:02;;;;;;;9.63;7.78;;;;;;;;;;10482520;28;20099;-61
2023/06/20 17:13:03;;;;;;;8.60;7.30;;;;;;;;;;10497536;28;20537;-62
2023/06/20 17:18:04;;;;;;;8.85;7.38;;;;;;;;;;10497537;28;20081;-60
2023/06/20 17:23:05;;;;;;;14.95;8.65;;;;;;;;;;10495799;28;20444;-60
2023/06/20 17:28:06;;;;;;;10.10;7.93;;;;;;;;;;10498200;28;20028;-63
2023/06/20 17:33:06;;;;;;;9.52;7.85;;;;;;;;;;10493933;28;20037;-63
2023/06/20 17:38:07;;;;;;;18.42;8.32;;;;;;;;;;10497013;28;20036;-62
2023/06/20 17:43:07;;;;;;;9.52;7.80;;;;;;;;;;10496946;28;20032;-64
2023/06/20 17:48:08;;;;;;;10.73;7.50;;;;;;;;;;10482252;28;20032;-61
2023/06/20 17:53:09;;;;;;;10.35;7.05;;;;;;;;;;10473347;28;20025;-62
2023/06/20 17:58:09;;;;;;;10.35;6.90;;;;;;;;;;10483454;28;20044;-63
2023/06/20 18:03:10;;;;;;;9.63;7.55;;;;;;;;;;10493697;28;20058;-63
2023/06/20 18:08:10;;;;;;;7.68;6.85;;;;;;;;;;10495456;28;20453;-63
2023/06/20 18:13:11;;;;;;;7.78;6.78;;;;;;;;;;10496934;28;20021;-64
2023/06/20 18:18:12;;;;;;;6.85;6.15;;;;;;;;;;10494155;28;20111;-61
2023/06/20 18:23:12;;;;;;;7.60;6.80;;;;;;;;;;10493188;28;20107;-61
2023/06/20 18:28:13;;;;;;;6.22;5.65;;;;;;;;;;10494814;28;20040;-61
2023/06/20 18:33:15;;;;;;;7.05;5.93;;;;;;;;;;10481370;28;20072;-61
2023/06/20 18:38:16;;;;;;;6.65;6.05;;;;;;;;;;10494343;28;20054;-60
2023/06/20 18:43:16;;;;;;;6.20;5.60;;;;;;;;;;10494054;28;20120;-63
2023/06/20 18:48:17;;;;;;;15.95;6.68;;;;;;;;;;10492463;28;20047;-63
2023/06/20 18:53:19;;;;;;;10.05;6.18;;;;;;;;;;10485044;28;20129;-63
2023/06/20 18:58:19;;;;;;;6.35;5.35;;;;;;;;;;10489386;28;20029;-63
2023/06/20 19:03:20;;;;;;;6.70;6.00;;;;;;;;;;10479510;28;20530;-63
2023/06/20 19:08:20;;;;;;;6.28;5.55;;;;;;;;;;10485648;28;20029;-63
2023/06/20 19:13:22;;;;;;;6.53;5.90;;;;;;;;;;10472880;28;20028;-63
2023/06/20 19:18:23;;;;;;;6.03;5.43;;;;;;;;;;10486176;28;20060;-63
2023/06/20 19:23:25;;;;;;;6.28;5.68;;;;;;;;;;10486102;28;20032;-63
2023/06/20 19:28:25;;;;;;;6.93;5.38;;;;;;;;;;10488161;28;20119;-63
2023/06/20 19:33:26;;;;;;;8.18;5.45;;;;;;;;;;10487866;28;20048;-63
2023/06/20 19:38:27;;;;;;;5.57;5.05;;;;;;;;;;10486726;28;20130;-63
2023/06/20 19:43:27;;;;;;;6.75;6.03;;;;;;;;;;10472720;28;20505;-62
2023/06/20 19:48:28;;;;;;;7.00;5.95;;;;;;;;;;10466846;28;20028;-63
2023/06/20 19:53:29;;;;;;;6.53;5.70;;;;;;;;;;10470823;28;20415;-62
2023/06/20 19:58:30;;;;;;;9.00;5.82;;;;;;;;;;10482362;28;20403;-65
2023/06/20 20:03:30;;;;;;;18.02;5.68;;;;;;;;;;10489097;28;20028;-64
2023/06/20 20:08:31;;;;;;;15.05;6.07;;;;;;;;;;10484466;28;20036;-64
2023/06/20 20:13:31;;;;;;;23.63;6.47;;;;;;;;;;10477376;28;20135;-64
2023/06/20 20:18:32;;;;;;;9.80;5.57;;;;;;;;;;10487760;28;20039;-64
2023/06/20 20:23:33;;;;;;;6.50;5.38;;;;;;;;;;10485983;28;20384;-64
2023/06/20 20:28:35;;;;;;;16.85;5.70;;;;;;;;;;10487906;28;20061;-65
2023/06/20 20:33:35;;;;;;;13.80;5.63;;;;;;;;;;10485236;28;20040;-65
2023/06/20 20:38:36;;;;;;;15.05;5.45;;;;;;;;;;10487052;28;20033;-64
2023/06/20 20:43:37;;;;;;;13.30;5.53;;;;;;;;;;10495115;28;20072;-64
2023/06/20 20:48:38;;;;;;;9.55;5.25;;;;;;;;;;10495641;28;20274;-64
2023/06/20 20:53:39;;;;;;;8.30;4.78;;;;;;;;;;10480435;28;20294;-64
2023/06/20 20:58:39;;;;;;;6.55;5.07;;;;;;;;;;10470285;28;20039;-64
2023/06/20 21:03:40;;;;;;;16.65;5.60;;;;;;;;;;10480600;28;20024;-64
2023/06/20 21:08:41;;;;;;;16.13;5.45;;;;;;;;;;10471788;28;20040;-64
2023/06/20 21:13:42;;;;;;;14.43;5.43;;;;;;;;;;10466460;28;20044;-64
2023/06/20 21:18:43;;;;;;;10.88;4.60;;;;;;;;;;10474176;28;20480;-65
2023/06/20 21:23:43;;;;;;;7.05;4.95;;;;;;;;;;10491932;28;20032;-63
2023/06/20 21:28:44;;;;;;;7.35;5.40;;;;;;;;;;10491961;28;20051;-63
2023/06/20 21:33:44;;;;;;;8.55;4.93;;;;;;;;;;10495106;28;20044;-65
2023/06/20 21:38:45;;;;;;;10.07;4.82;;;;;;;;;;10493472;28;20028;-63
2023/06/20 21:43:46;;;;;;;11.65;5.70;;;;;;;;;;10470529;28;20037;-64
2023/06/20 21:48:47;;;;;;;7.85;4.93;;;;;;;;;;10478413;28;20016;-63
2023/06/20 21:53:47;;;;;;;18.17;5.53;;;;;;;;;;10489890;28;20028;-62
2023/06/20 21:58:48;;;;;;;13.45;5.50;;;;;;;;;;10491752;28;20048;-64
2023/06/20 22:03:49;;;;;;;6.80;4.43;;;;;;;;;;10497608;28;20432;-64
2023/06/20 22:08:50;;;;;;;8.95;4.95;;;;;;;;;;10494199;28;20511;-64
2023/06/20 22:13:50;;;;;;;9.02;5.40;;;;;;;;;;10497225;28;20035;-64
2023/06/20 22:18:51;;;;;;;9.43;4.68;;;;;;;;;;10490309;28;20028;-64
2023/06/20 22:23:51;;;;;;;8.00;5.35;;;;;;;;;;10495022;28;20039;-64
2023/06/20 22:28:52;;;;;;;10.13;4.72;;;;;;;;;;10493862;28;20488;-64
2023/06/20 22:33:53;;;;;;;5.72;4.55;;;;;;;;;;10494022;28;20048;-64
2023/06/20 22:38:53;;;;;;;8.82;4.53;;;;;;;;;;10485611;28;20029;-65
2023/06/20 22:43:54;;;;;;;6.53;4.45;;;;;;;;;;10492905;28;20036;-65
2023/06/20 22:48:59;;;;;;;5.05;4.53;;;;;;;;;;10484918;28;20247;-65
2023/06/20 22:54:00;;;;;;;4.90;4.30;;;;;;;;;;10492917;28;20519;-64
2023/06/20 22:59:00;;;;;;;7.40;4.53;;;;;;;;;;10492464;28;20029;-66
2023/06/20 23:04:01;;;;;;;6.75;4.15;;;;;;;;;;10489625;28;20348;-66
2023/06/20 23:09:04;;;;;;;8.10;4.20;;;;;;;;;;10493559;28;20040;-66
2023/06/20 23:14:05;;;;;;;8.15;4.40;;;;;;;;;;10494508;28;20031;-66
2023/06/20 23:19:06;;;;;;;6.55;4.72;;;;;;;;;;10493549;28;20031;-66
2023/06/20 23:24:07;;;;;;;5.35;4.43;;;;;;;;;;10493259;28;20029;-66
2023/06/20 23:29:08;;;;;;;7.18;4.03;;;;;;;;;;10491928;28;20042;-66
2023/06/20 23:34:10;;;;;;;5.22;4.60;;;;;;;;;;10492283;28;20056;-66
2023/06/20 23:39:11;;;;;;;6.63;4.57;;;;;;;;;;10492140;28;20025;-66
2023/06/20 23:44:12;;;;;;;6.97;4.30;;;;;;;;;;10491910;28;20024;-66
2023/06/20 23:49:12;;;;;;;6.32;4.38;;;;;;;;;;10490442;28;20053;-66
2023/06/20 23:54:13;;;;;;;8.18;4.72;;;;;;;;;;10492229;28;20032;-66
2023/06/20 23:59:14;;;;;;;4.55;4.15;;;;;;;;;;10492151;28;20244;-66
